Etusivu
METAR-TAF:

METAR-TAF

Lentoasemat :

Tomahawk Regional Airport

Tomahawk, Wisconsin, Yhdysvallat

Leveyspiiri: 45-28-08N, Pituuspiiri: 089-48-20W, korkeus merenpinnasta: 453 m

Tämänhetkinen sää

Tämä raportti tehtiin 11 minuuttia sitten, kello 07.15 UTC
Tuuli 3 kn etelästä/kaakosta
Lämpötila -12°C
Kosteus 66%
Ilmanpaine 1018 hPa
Näkyvyys: 16.1 km
Hajonneita pilviä 12000 ft:n korkeudessa

METAR: KTKV 130715Z AUTO 16003KT 10SM BKN120 M12/M17 A3006 RMK AO2 T11161168

Aika: 01:26 (07:26 UTC)


TAF: puuttuu

Säähavainnot ja -ennusteet yli 4000 lentoasemalta (METAR- ja TAF-raportit).

Käytössä olevat sääasemat on merkitty karttaan keltaisilla ja punaisilla pisteillä.

Aseta hiiri pisteen päälle nähdäksesi sääaseman nimen.

Klikkaa sitten nähdäksesi säähavainnot ja -ennusteet.

Kartan vaihtaminen: klikkaa mustalla rastilla varustettuja vihreitä pisteitä, niin voit zoomata sisään; viivalla varustettua vihreää pistettä, niin voit zoomata ulos tai vihreitä nuolia, niin pääset viereisille kartoille.


METAR-TAF: